Caseros, Argentina
Current Conditions -  °F | °C
As of 9:00 PM on Friday 31 Oct 2014 (Local Time) from SABE Reporting Station
Broken Clouds Broken Clouds  
Wind Chill: 18°   Ceiling: 10000
Heat Index: 18°   Visibility: 6mi
Dew Point: 14°   Wind: 18mph
Humidity: 77%   Direction: 140°SE
Pressure: 30.06"   Gusts: NA
Location:  34.6°S, 58.55°W
Report Text: SABE 010000Z 14016KT 9999 SCT020 BKN10018/14 Q1018
Loading
Personal Weather Stations






























Interactive Weather Map
Tropical Storm Tracking
New forecast layout! Learn more

10-Day Weather Forecast

Advertisements
Track Severe Weather on mobile